Time;durP1;ratioP1;P1;durP2;ratioP2;P2;SDS_P1;SDS_P2;PMS_P1;PMS_P2;Temp;Humidity;BMP_temperature;BMP_pressure;BME280_temperature;BME280_humidity;BME280_pressure;Samples;Min_cycle;Max_cycle;Signal;HPM_P1;HPM_P2
2022/03/04 12:51:47;;;;;;;14.13;11.23;;;14.50;57.20;;;;;;2298475;62;30152;-73
2022/03/04 12:54:16;;;;;;;14.02;10.88;;;14.50;60.30;;;;;;2282994;62;30470;-73
2022/03/04 12:56:42;;;;;;;11.77;10.35;;;14.60;61.10;;;;;;2291355;62;30318;-72
2022/03/04 12:59:09;;;;;;;12.75;10.80;;;14.60;61.60;;;;;;2291367;62;30057;-72
2022/03/04 13:01:42;;;;;;;13.13;10.90;;;14.60;61.60;;;;;;2290964;62;30233;-71
2022/03/04 13:04:08;;;;;;;12.13;10.35;;;14.70;61.30;;;;;;2291312;62;30153;-71
2022/03/04 13:06:34;;;;;;;13.30;11.35;;;14.70;61.90;;;;;;2282909;62;30191;-71
2022/03/04 13:09:04;;;;;;;14.88;11.38;;;14.60;61.60;;;;;;2282894;62;30324;-73
2022/03/04 13:11:37;;;;;;;12.93;11.10;;;14.50;61.10;;;;;;2277002;62;31778;-70
2022/03/04 13:14:06;;;;;;;17.40;11.05;;;14.40;59.90;;;;;;2283504;62;30133;-73
2022/03/04 13:16:45;;;;;;;14.35;10.80;;;14.20;61.00;;;;;;2290840;62;30156;-73
2022/03/04 13:19:17;;;;;;;11.95;10.27;;;14.10;59.00;;;;;;2290856;62;30841;-73
2022/03/04 13:21:45;;;;;;;13.77;10.95;;;14.10;61.60;;;;;;2283262;62;30795;-73
2022/03/04 13:24:19;;;;;;;14.75;10.98;;;14.00;61.20;;;;;;2275355;62;30145;-73
2022/03/04 13:27:00;;;;;;;11.25;10.10;;;14.00;61.30;;;;;;2282404;62;30206;-73
2022/03/04 13:29:46;;;;;;;12.70;11.18;;;13.90;60.20;;;;;;2281918;62;31172;-73
2022/03/04 13:32:16;;;;;;;13.40;11.30;;;13.90;57.60;;;;;;2282602;62;30593;-73
2022/03/04 13:34:48;;;;;;;12.27;10.10;;;13.80;61.00;;;;;;2281954;62;30151;-73
2022/03/04 13:37:15;;;;;;;13.27;10.38;;;13.80;60.80;;;;;;2282089;62;30108;-73
2022/03/04 13:39:42;;;;;;;11.93;10.20;;;13.80;60.70;;;;;;2281852;62;30095;-73
2022/03/04 13:42:12;;;;;;;11.55;10.35;;;13.80;60.20;;;;;;2281735;62;30598;-73
2022/03/04 13:45:05;;;;;;;11.20;9.80;;;13.70;59.80;;;;;;2282054;62;30211;-73
2022/03/04 13:47:37;;;;;;;11.23;10.13;;;13.70;58.20;;;;;;2282874;62;30174;-74
2022/03/04 13:50:07;;;;;;;12.23;9.65;;;13.80;59.20;;;;;;2282280;62;30843;-74
2022/03/04 13:52:58;;;;;;;10.98;9.73;;;13.90;59.80;;;;;;2282335;62;30074;-74
2022/03/04 13:55:49;;;;;;;;;;;13.90;57.70;;;;;;2282415;62;30270;-73
2022/03/04 13:58:23;;;;;;;10.55;9.52;;;13.90;56.60;;;;;;2278433;62;30321;-73
2022/03/04 14:00:55;;;;;;;11.63;9.43;;;13.90;58.40;;;;;;2274902;62;30920;-73
2022/03/04 14:03:26;;;;;;;11.55;9.82;;;13.90;58.40;;;;;;2276355;62;30479;-74
2022/03/04 14:06:08;;;;;;;11.15;9.75;;;13.80;59.10;;;;;;2276810;62;30249;-73
2022/03/04 14:08:35;;;;;;;11.00;8.93;;;13.80;57.50;;;;;;2269933;62;30202;-74
2022/03/04 14:11:02;;;;;;;11.38;9.80;;;13.80;58.80;;;;;;2276483;62;30642;-73
2022/03/04 14:13:28;;;;;;;10.93;9.50;;;13.80;58.80;;;;;;2277971;62;30729;-73
2022/03/04 14:15:54;;;;;;;11.35;9.25;;;13.70;58.50;;;;;;2284662;62;30221;-75
2022/03/04 14:18:24;;;;;;;11.32;9.38;;;13.80;58.80;;;;;;2277213;62;30346;-74
2022/03/04 14:20:50;;;;;;;10.55;9.02;;;13.80;59.10;;;;;;2285096;62;31080;-75
2022/03/04 14:23:16;;;;;;;10.13;9.05;;;13.90;60.20;;;;;;2270913;62;30572;-79
2022/03/04 14:25:42;;;;;;;15.60;9.75;;;14.00;60.50;;;;;;2277816;62;30173;-77
2022/03/04 14:28:10;;;;;;;11.45;9.07;;;14.10;60.60;;;;;;2271081;62;30135;-80
2022/03/04 14:30:39;;;;;;;8.95;8.05;;;14.30;61.00;;;;;;2285193;62;30238;-79
2022/03/04 14:33:06;;;;;;;10.23;8.60;;;14.40;61.00;;;;;;2277723;62;30648;-79
2022/03/04 14:35:33;;;;;;;10.60;7.60;;;14.50;61.30;;;;;;2285273;62;30157;-80
2022/03/04 14:37:59;;;;;;;9.90;7.93;;;14.60;61.40;;;;;;2277592;62;30168;-78
2022/03/04 14:40:25;;;;;;;9.18;7.97;;;14.70;61.40;;;;;;2285104;62;30185;-77
2022/03/04 14:42:53;;;;;;;9.82;6.78;;;14.80;61.10;;;;;;2285013;62;30295;-77
2022/03/04 14:45:19;;;;;;;8.55;6.88;;;14.90;60.70;;;;;;2277570;62;30352;-77
2022/03/04 14:47:45;;;;;;;10.30;6.35;;;14.90;61.20;;;;;;2285243;62;30041;-77
2022/03/04 14:50:13;;;;;;;8.32;6.30;;;15.00;60.90;;;;;;2285412;62;30326;-78
2022/03/04 14:52:39;;;;;;;7.85;6.65;;;15.00;61.00;;;;;;2284998;62;30261;-77
2022/03/04 14:55:06;;;;;;;6.63;5.93;;;15.10;60.90;;;;;;2285205;62;30002;-77
2022/03/04 14:57:33;;;;;;;6.65;5.35;;;15.10;61.00;;;;;;2270983;62;30346;-77
2022/03/04 14:59:59;;;;;;;6.63;5.93;;;15.20;61.10;;;;;;2284972;62;32576;-79
2022/03/04 15:02:25;;;;;;;6.65;5.93;;;15.30;61.40;;;;;;2285111;62;30508;-83
2022/03/04 15:04:51;;;;;;;6.35;5.47;;;15.30;61.60;;;;;;2277779;62;30181;-79
2022/03/04 15:07:17;;;;;;;9.48;5.90;;;15.30;61.40;;;;;;2284954;62;30332;-78
2022/03/04 15:09:44;;;;;;;7.50;5.40;;;15.40;61.80;;;;;;2270893;62;30211;-70
2022/03/04 15:12:10;;;;;;;8.40;5.22;;;15.40;62.10;;;;;;2277571;62;30226;-75
2022/03/04 15:14:37;;;;;;;7.57;5.40;;;15.40;62.10;;;;;;2270275;62;29998;-76
2022/03/04 15:17:03;;;;;;;7.32;5.28;;;15.50;62.00;;;;;;2277563;62;30151;-74
2022/03/04 15:19:33;;;;;;;6.00;4.72;;;15.50;61.80;;;;;;2267754;62;31073;-74
2022/03/04 15:21:59;;;;;;;6.97;4.63;;;15.60;61.80;;;;;;2284565;62;30478;-72
2022/03/04 15:24:25;;;;;;;7.72;5.30;;;15.70;62.40;;;;;;2284902;62;30146;-72
2022/03/04 15:26:52;;;;;;;6.00;5.15;;;16.00;62.00;;;;;;2270713;62;30114;-72
2022/03/04 15:29:18;;;;;;;6.47;4.70;;;16.70;61.80;;;;;;2277226;62;30160;-73
2022/03/04 15:31:45;;;;;;;6.85;5.43;;;17.60;60.10;;;;;;2284791;62;30085;-74
2022/03/04 15:34:10;;;;;;;5.07;4.50;;;18.50;58.40;;;;;;2284750;62;30593;-74
2022/03/04 15:36:36;;;;;;;6.10;4.82;;;19.20;56.90;;;;;;2277470;62;30229;-73
2022/03/04 15:39:03;;;;;;;5.00;4.28;;;19.80;55.50;;;;;;2277329;62;30840;-74
2022/03/04 15:41:28;;;;;;;5.97;4.57;;;20.20;54.70;;;;;;2284619;62;30149;-74
2022/03/04 15:43:54;;;;;;;5.95;4.25;;;20.50;54.10;;;;;;2284786;62;30313;-75
2022/03/04 15:46:21;;;;;;;4.50;4.00;;;20.60;53.60;;;;;;2284946;62;30234;-75
2022/03/04 15:48:47;;;;;;;5.78;4.20;;;20.80;53.20;;;;;;2284493;62;30958;-74
2022/03/04 15:51:13;;;;;;;7.80;4.20;;;20.90;52.90;;;;;;2277311;62;30388;-74
2022/03/04 15:53:39;;;;;;;5.47;4.40;;;20.80;52.90;;;;;;2277517;62;30250;-74
2022/03/04 15:56:05;;;;;;;4.38;3.92;;;20.80;52.90;;;;;;2284799;62;30275;-75
2022/03/04 15:58:33;;;;;;;5.70;3.97;;;20.50;53.20;;;;;;2284688;62;32210;-75
2022/03/04 16:00:58;;;;;;;4.90;3.90;;;20.20;53.80;;;;;;2284549;62;30121;-74
2022/03/04 16:03:24;;;;;;;4.68;3.63;;;19.80;55.30;;;;;;2277194;62;30422;-74
2022/03/04 16:05:50;;;;;;;3.92;3.53;;;19.40;55.20;;;;;;2277331;62;30347;-74
2022/03/04 16:08:16;;;;;;;3.63;3.33;;;19.10;55.90;;;;;;2284754;62;32457;-74
2022/03/04 16:10:42;;;;;;;4.18;3.78;;;18.70;56.30;;;;;;2284445;62;30304;-74
2022/03/04 16:13:08;;;;;;;4.22;3.40;;;18.50;56.90;;;;;;2284786;62;30222;-74
2022/03/04 16:15:34;;;;;;;4.03;3.63;;;18.20;57.10;;;;;;2284727;62;30192;-74
2022/03/04 16:18:00;;;;;;;4.28;3.60;;;18.00;57.50;;;;;;2277186;62;30826;-71
2022/03/04 16:20:26;;;;;;;4.47;3.53;;;17.80;57.70;;;;;;2284733;62;30333;-73
2022/03/04 16:22:52;;;;;;;5.57;3.30;;;17.60;58.00;;;;;;2277296;62;30188;-73
2022/03/04 16:25:17;;;;;;;5.70;3.45;;;17.40;58.30;;;;;;2284272;62;30031;-71
2022/03/04 16:27:43;;;;;;;4.15;3.30;;;17.30;58.40;;;;;;2284695;62;30110;-71
2022/03/04 16:30:10;;;;;;;3.80;3.45;;;17.20;58.70;;;;;;2284638;62;30154;-73
2022/03/04 16:32:35;;;;;;;3.70;3.40;;;17.00;58.90;;;;;;2284176;62;30201;-73
2022/03/04 16:35:01;;;;;;;4.60;3.50;;;16.90;59.20;;;;;;2284591;62;30269;-72
2022/03/04 16:37:27;;;;;;;3.92;3.20;;;16.80;59.30;;;;;;2284178;62;31075;-72
2022/03/04 16:39:54;;;;;;;6.70;3.53;;;16.70;59.50;;;;;;2276596;62;30737;-72
2022/03/04 16:42:20;;;;;;;3.80;3.17;;;16.60;59.70;;;;;;2269086;62;30358;-73
2022/03/04 16:44:47;;;;;;;3.58;3.28;;;16.60;59.70;;;;;;2268775;62;30428;-74
2022/03/04 16:47:14;;;;;;;6.20;3.22;;;16.50;59.90;;;;;;2279544;62;30273;-74
2022/03/04 16:49:40;;;;;;;7.75;3.00;;;16.40;60.00;;;;;;2270213;62;30533;-73
2022/03/04 16:52:07;;;;;;;4.25;3.20;;;16.30;60.10;;;;;;2276975;62;30156;-73
2022/03/04 16:54:34;;;;;;;5.00;3.13;;;16.20;60.20;;;;;;2277154;62;30102;-73
2022/03/04 16:57:04;;;;;;;5.20;3.63;;;16.20;60.40;;;;;;2262836;62;30345;-73
2022/03/04 16:59:31;;;;;;;3.22;3.03;;;16.10;61.00;;;;;;2268872;62;30120;-74
2022/03/04 17:01:57;;;;;;;3.10;2.80;;;16.00;60.50;;;;;;2267816;62;30180;-73
2022/03/04 17:04:23;;;;;;;3.97;3.38;;;16.00;60.70;;;;;;2269942;62;30157;-73
2022/03/04 17:06:49;;;;;;;4.13;3.03;;;16.00;61.10;;;;;;2284128;62;30349;-72
2022/03/04 17:09:15;;;;;;;3.38;3.00;;;15.90;61.20;;;;;;2276994;62;30736;-73
2022/03/04 17:11:41;;;;;;;3.08;2.78;;;15.90;61.50;;;;;;2284406;62;30203;-73
2022/03/04 17:14:08;;;;;;;5.03;3.00;;;15.90;61.60;;;;;;2284249;62;30263;-73
2022/03/04 17:16:34;;;;;;;5.85;3.20;;;15.90;62.00;;;;;;2284384;62;30131;-74
2022/03/04 17:19:00;;;;;;;3.35;2.95;;;15.80;61.70;;;;;;2281718;62;32065;-74
2022/03/04 17:21:26;;;;;;;3.63;2.42;;;15.70;61.90;;;;;;2275953;62;30141;-75
2022/03/04 17:23:53;;;;;;;3.75;3.10;;;15.70;62.00;;;;;;2280609;62;30151;-74
2022/03/04 17:26:20;;;;;;;2.85;2.65;;;15.70;62.10;;;;;;2284265;62;30160;-73
2022/03/04 17:28:46;;;;;;;4.22;2.92;;;15.60;62.20;;;;;;2276530;62;30642;-74
2022/03/04 17:31:11;;;;;;;3.40;3.08;;;15.60;62.20;;;;;;2276868;62;30227;-76
2022/03/04 17:33:38;;;;;;;5.07;3.17;;;15.60;62.40;;;;;;2284158;62;30243;-75
2022/03/04 17:36:04;;;;;;;3.92;2.90;;;15.50;62.50;;;;;;2284085;62;30684;-73
2022/03/04 17:38:30;;;;;;;4.70;3.05;;;15.50;62.70;;;;;;2285370;62;30821;-73
2022/03/04 17:40:56;;;;;;;3.95;3.00;;;15.50;63.30;;;;;;2277730;62;30088;-75
2022/03/04 17:43:22;;;;;;;9.65;3.60;;;15.50;63.10;;;;;;2285409;62;30333;-74
2022/03/04 17:45:48;;;;;;;4.75;3.13;;;15.50;63.00;;;;;;2285378;62;30945;-73
2022/03/04 17:48:14;;;;;;;4.05;3.17;;;15.50;63.40;;;;;;2285285;62;30428;-73
2022/03/04 17:50:39;;;;;;;5.55;3.25;;;15.60;64.60;;;;;;2285335;62;30173;-75
2022/03/04 17:53:07;;;;;;;6.30;3.10;;;15.60;63.60;;;;;;2285489;62;30091;-73
2022/03/04 17:55:33;;;;;;;3.30;2.78;;;15.70;63.60;;;;;;2285166;62;30779;-74
2022/03/04 17:57:59;;;;;;;3.08;2.85;;;15.70;63.50;;;;;;2285212;62;30231;-75
2022/03/04 18:00:27;;;;;;;4.78;3.17;;;15.80;63.20;;;;;;2285227;62;30419;-74
2022/03/04 18:02:53;;;;;;;3.55;2.75;;;15.80;62.90;;;;;;2283952;62;30447;-75
2022/03/04 18:05:19;;;;;;;3.28;2.97;;;15.80;63.50;;;;;;2279896;62;31376;-74
2022/03/04 18:07:46;;;;;;;4.28;2.83;;;15.80;63.10;;;;;;2276675;62;30635;-73
2022/03/04 18:10:12;;;;;;;4.20;3.10;;;15.80;63.40;;;;;;2275947;62;30544;-73
2022/03/04 18:12:38;;;;;;;3.60;3.00;;;15.80;63.30;;;;;;2276451;62;30189;-73
2022/03/04 18:15:04;;;;;;;4.93;2.92;;;15.80;63.80;;;;;;2276158;62;30735;-73
2022/03/04 18:17:31;;;;;;;3.88;3.10;;;15.80;63.50;;;;;;2277909;62;30325;-74
2022/03/04 18:19:57;;;;;;;3.58;2.85;;;15.70;63.90;;;;;;2278635;62;30194;-74
2022/03/04 18:22:23;;;;;;;5.03;3.10;;;15.80;63.80;;;;;;2276892;62;30144;-75
2022/03/04 18:24:49;;;;;;;2.97;2.67;;;15.80;64.30;;;;;;2276525;62;30686;-73
2022/03/04 18:27:15;;;;;;;4.55;2.80;;;15.80;63.80;;;;;;2276045;62;30869;-74
2022/03/04 18:29:46;;;;;;;3.30;3.00;;;15.80;63.90;;;;;;2276413;62;30321;-76
2022/03/04 18:32:12;;;;;;;3.92;2.78;;;15.80;64.10;;;;;;2276712;62;30167;-77
2022/03/04 18:34:38;;;;;;;5.65;3.05;;;15.80;64.40;;;;;;2269594;62;30185;-76
2022/03/04 18:37:04;;;;;;;2.40;2.20;;;15.90;64.70;;;;;;2276795;62;30839;-75
2022/03/04 18:42:14;;;;;;;2.67;2.47;;;16.10;64.70;;;;;;2276980;62;30096;-76
2022/03/04 18:44:40;;;;;;;5.55;2.80;;;16.20;64.60;;;;;;2276343;62;30887;-77
2022/03/04 18:47:09;;;;;;;3.00;2.70;;;16.30;64.60;;;;;;2276358;62;30795;-75
2022/03/04 18:49:35;;;;;;;2.92;2.53;;;16.40;64.50;;;;;;2276962;62;30137;-77
2022/03/04 18:52:01;;;;;;;2.63;2.17;;;16.40;64.30;;;;;;2276710;62;30310;-75
2022/03/04 18:54:27;;;;;;;2.38;2.17;;;16.50;64.30;;;;;;2276799;62;32202;-76
2022/03/04 18:56:53;;;;;;;2.45;1.85;;;16.60;64.30;;;;;;2276911;62;30851;-77
2022/03/04 18:59:20;;;;;;;3.47;2.22;;;16.60;64.20;;;;;;2276242;62;30191;-77
2022/03/04 19:01:54;;;;;;;2.70;1.90;;;16.60;63.90;;;;;;2276910;62;30443;-76
2022/03/04 19:04:21;;;;;;;2.80;2.00;;;16.70;64.00;;;;;;2276854;62;30048;-75
2022/03/04 19:06:47;;;;;;;2.28;1.90;;;16.70;63.80;;;;;;2276645;62;30109;-75
2022/03/04 19:09:13;;;;;;;2.83;2.10;;;16.70;63.60;;;;;;2276295;62;30168;-75
2022/03/04 19:11:40;;;;;;;2.10;1.90;;;16.80;63.60;;;;;;2276866;62;30180;-75
2022/03/04 19:14:06;;;;;;;1.92;1.80;;;16.80;63.60;;;;;;2277257;62;30702;-77
2022/03/04 19:16:36;;;;;;;2.33;1.90;;;16.80;63.60;;;;;;2276184;62;30316;-75
2022/03/04 19:19:05;;;;;;;1.90;1.60;;;16.90;63.40;;;;;;2276540;62;30343;-75
2022/03/04 19:21:31;;;;;;;2.58;1.80;;;16.90;63.50;;;;;;2276562;62;30083;-76
2022/03/04 19:23:57;;;;;;;2.40;1.80;;;16.90;63.50;;;;;;2276593;62;30852;-75
2022/03/04 19:26:25;;;;;;;2.08;1.88;;;16.90;63.30;;;;;;2276406;62;30134;-76
2022/03/04 19:28:54;;;;;;;1.80;1.70;;;16.90;63.20;;;;;;2276835;62;30209;-75
2022/03/04 19:31:22;;;;;;;2.80;1.60;;;16.90;63.20;;;;;;2276703;62;30065;-74
2022/03/04 19:33:48;;;;;;;1.95;1.85;;;16.90;63.10;;;;;;2275939;62;31067;-76
2022/03/04 19:36:14;;;;;;;1.80;1.70;;;16.90;63.00;;;;;;2276363;62;30953;-75
2022/03/04 19:38:39;;;;;;;1.63;1.40;;;16.90;63.00;;;;;;2272655;62;30273;-75
2022/03/04 19:41:06;;;;;;;2.10;1.50;;;16.90;63.00;;;;;;2284349;62;30453;-75
2022/03/04 19:43:32;;;;;;;2.88;1.45;;;16.90;63.00;;;;;;2284878;62;30946;-74
2022/03/04 19:45:58;;;;;;;2.13;1.70;;;16.90;62.90;;;;;;2276831;62;30296;-75
2022/03/04 19:48:24;;;;;;;2.58;1.45;;;16.90;62.90;;;;;;2284296;62;30047;-75
2022/03/04 19:50:50;;;;;;;2.17;1.67;;;16.90;62.80;;;;;;2284670;62;30295;-75
2022/03/04 19:53:16;;;;;;;1.73;1.52;;;16.90;62.80;;;;;;2284873;62;30226;-75
2022/03/04 19:55:42;;;;;;;1.75;1.40;;;16.90;62.80;;;;;;2284405;62;30351;-75
2022/03/04 19:58:07;;;;;;;1.70;1.50;;;16.90;62.70;;;;;;2284821;62;30375;-75
2022/03/04 20:00:33;;;;;;;2.42;1.70;;;16.90;62.80;;;;;;2284458;62;30177;-75
2022/03/04 20:03:01;;;;;;;2.08;1.70;;;16.90;62.80;;;;;;2284561;62;30914;-75
2022/03/04 20:05:26;;;;;;;1.88;1.45;;;16.90;62.90;;;;;;2284527;62;30474;-75
2022/03/04 20:07:52;;;;;;;3.10;1.42;;;16.90;62.80;;;;;;2284655;62;30144;-75
2022/03/04 20:10:18;;;;;;;2.63;1.58;;;16.90;62.70;;;;;;2284323;62;30368;-75
2022/03/04 20:12:45;;;;;;;2.40;1.40;;;16.90;62.70;;;;;;2277267;62;31201;-77
2022/03/04 20:15:10;;;;;;;1.60;1.50;;;16.90;62.90;;;;;;2284573;62;31891;-76
2022/03/04 20:17:36;;;;;;;1.67;1.58;;;16.90;62.90;;;;;;2284433;62;30192;-76
2022/03/04 20:20:03;;;;;;;2.13;1.50;;;16.90;63.10;;;;;;2284657;62;30154;-76
2022/03/04 20:22:29;;;;;;;2.97;1.88;;;16.90;63.10;;;;;;2270195;62;30873;-76
2022/03/04 20:24:55;;;;;;;2.50;1.88;;;16.90;62.90;;;;;;2284621;62;30333;-76
2022/03/04 20:27:21;;;;;;;2.85;1.40;;;16.90;63.00;;;;;;2280380;62;30090;-75
2022/03/04 20:29:47;;;;;;;3.05;1.42;;;16.90;63.00;;;;;;2268636;62;30237;-74
2022/03/04 20:32:13;;;;;;;2.58;1.40;;;16.90;62.90;;;;;;2279706;62;30847;-74
2022/03/04 20:34:39;;;;;;;4.45;1.52;;;16.90;62.80;;;;;;2282843;62;30048;-74
2022/03/04 20:37:05;;;;;;;1.60;1.50;;;16.90;62.80;;;;;;2284096;62;30207;-74
2022/03/04 20:39:31;;;;;;;1.65;1.55;;;16.90;62.60;;;;;;2282218;62;31620;-74
2022/03/04 20:41:57;;;;;;;1.48;1.45;;;16.90;62.70;;;;;;2283613;62;30377;-74
2022/03/04 20:44:23;;;;;;;4.38;1.40;;;16.90;62.70;;;;;;2272341;62;30753;-73
2022/03/04 20:46:49;;;;;;;1.73;1.40;;;16.90;62.60;;;;;;2283407;62;30178;-73
2022/03/04 20:49:14;;;;;;;1.50;1.35;;;16.90;62.80;;;;;;2284304;62;30353;-73
2022/03/04 20:51:40;;;;;;;1.52;1.42;;;16.90;62.60;;;;;;2279737;62;31097;-75
2022/03/04 20:54:06;;;;;;;1.58;1.42;;;17.00;62.50;;;;;;2267574;62;30215;-74
2022/03/04 20:56:32;;;;;;;1.65;1.30;;;17.00;62.70;;;;;;2267691;62;30008;-75
2022/03/04 20:58:58;;;;;;;4.00;1.40;;;17.00;62.80;;;;;;2270543;62;30286;-77
2022/03/04 21:01:27;;;;;;;1.60;1.50;;;17.00;62.60;;;;;;2267136;62;30966;-77
2022/03/04 21:03:54;;;;;;;1.58;1.48;;;17.00;62.60;;;;;;2274979;62;30866;-77
2022/03/04 21:06:20;;;;;;;1.80;1.33;;;17.00;62.70;;;;;;2274675;62;30289;-75
2022/03/04 21:08:46;;;;;;;1.00;1.00;;;17.00;62.50;;;;;;2275192;62;30197;-77
2022/03/04 21:11:12;;;;;;;2.47;1.50;;;17.00;62.70;;;;;;2283021;62;30959;-74
2022/03/04 21:13:38;;;;;;;1.30;1.20;;;17.00;62.70;;;;;;2272966;62;30291;-75
2022/03/04 21:16:04;;;;;;;1.58;1.48;;;17.00;62.70;;;;;;2278158;62;30157;-74
2022/03/04 21:18:30;;;;;;;3.45;1.48;;;17.00;62.60;;;;;;2268820;62;30261;-76
2022/03/04 21:20:56;;;;;;;1.10;1.10;;;17.00;62.70;;;;;;2271470;62;30737;-75
2022/03/04 21:23:22;;;;;;;1.67;1.27;;;17.00;62.50;;;;;;2269918;62;30162;-73
2022/03/04 21:25:48;;;;;;;1.08;1.08;;;16.90;62.30;;;;;;2284044;62;30615;-73
2022/03/04 21:28:14;;;;;;;1.40;1.30;;;16.90;62.50;;;;;;2276970;62;30191;-73
2022/03/04 21:30:40;;;;;;;1.40;1.30;;;16.90;62.70;;;;;;2282557;62;30285;-73
2022/03/04 21:33:06;;;;;;;1.30;1.30;;;16.90;63.60;;;;;;2283381;62;30482;-73
2022/03/04 21:35:32;;;;;;;1.38;1.27;;;16.90;62.80;;;;;;2284257;62;30018;-75
2022/03/04 21:37:58;;;;;;;1.05;1.05;;;16.90;63.00;;;;;;2276743;62;30101;-73
2022/03/04 21:40:24;;;;;;;1.00;0.93;;;16.90;62.90;;;;;;2276716;62;30296;-76
2022/03/04 21:42:50;;;;;;;1.42;1.33;;;16.90;62.90;;;;;;2269663;62;30191;-74
2022/03/04 21:45:16;;;;;;;1.10;1.10;;;16.90;62.70;;;;;;2271931;62;34452;-75
2022/03/04 21:47:42;;;;;;;2.25;1.15;;;16.90;62.70;;;;;;2276307;62;30593;-76
2022/03/04 21:50:08;;;;;;;1.52;1.30;;;16.90;62.70;;;;;;2276855;62;30830;-76
2022/03/04 21:52:35;;;;;;;1.13;1.10;;;17.00;62.80;;;;;;2284293;62;30913;-76
2022/03/04 21:55:00;;;;;;;1.38;1.27;;;17.00;62.70;;;;;;2275311;62;30616;-76
2022/03/04 21:57:26;;;;;;;1.10;1.10;;;17.00;62.70;;;;;;2270038;62;30323;-74
2022/03/04 21:59:53;;;;;;;1.30;1.20;;;17.00;62.70;;;;;;2278610;62;30293;-73
2022/03/04 22:02:18;;;;;;;1.10;1.10;;;16.90;62.50;;;;;;2275566;62;30980;-74
2022/03/04 22:04:46;;;;;;;1.45;1.25;;;16.90;62.30;;;;;;2271378;62;30489;-72
2022/03/04 22:07:12;;;;;;;1.00;1.00;;;16.80;62.40;;;;;;2276129;62;30339;-73
2022/03/04 22:09:38;;;;;;;1.00;1.00;;;16.80;62.60;;;;;;2281820;62;31232;-73
2022/03/04 22:12:04;;;;;;;1.58;1.10;;;16.80;62.80;;;;;;2280557;62;30154;-74
2022/03/04 22:14:31;;;;;;;1.30;1.23;;;16.80;62.80;;;;;;2270011;62;30317;-74
2022/03/04 22:16:57;;;;;;;1.15;1.05;;;16.80;62.70;;;;;;2275447;62;32137;-72
2022/03/04 22:19:23;;;;;;;0.90;0.90;;;16.80;63.00;;;;;;2282665;62;30252;-74
2022/03/04 22:21:51;;;;;;;1.00;1.00;;;16.80;62.90;;;;;;2284088;62;30772;-74
2022/03/04 22:24:17;;;;;;;1.20;1.20;;;16.80;62.80;;;;;;2276520;62;30732;-73
2022/03/04 22:26:43;;;;;;;1.08;1.08;;;16.80;62.80;;;;;;2284081;62;30155;-74
2022/03/04 22:29:09;;;;;;;1.30;1.20;;;16.90;62.90;;;;;;2283138;62;30172;-72
2022/03/04 22:31:35;;;;;;;1.45;1.20;;;16.90;63.00;;;;;;2283246;62;30572;-72
2022/03/04 22:34:01;;;;;;;1.17;1.17;;;16.90;62.90;;;;;;2283326;62;29983;-71
2022/03/04 22:36:27;;;;;;;1.98;1.10;;;16.90;62.80;;;;;;2283654;62;30083;-74
2022/03/04 22:38:53;;;;;;;2.70;1.27;;;16.90;62.90;;;;;;2281484;62;30194;-73
2022/03/04 22:41:20;;;;;;;1.05;1.05;;;16.90;63.00;;;;;;2274800;62;30508;-74
2022/03/04 22:43:46;;;;;;;1.02;0.98;;;16.90;63.10;;;;;;2277029;62;30208;-73
2022/03/04 22:46:12;;;;;;;1.15;1.13;;;16.90;62.80;;;;;;2276039;62;30253;-72
2022/03/04 22:48:38;;;;;;;1.63;1.50;;;16.90;62.80;;;;;;2283488;62;30412;-73
2022/03/04 22:51:03;;;;;;;1.40;1.30;;;16.80;62.40;;;;;;2275951;62;30248;-75
2022/03/04 22:53:29;;;;;;;1.05;1.05;;;16.80;62.60;;;;;;2283731;62;30459;-75
2022/03/04 22:55:56;;;;;;;1.75;1.13;;;16.80;62.80;;;;;;2269637;62;30546;-76
2022/03/04 22:58:22;;;;;;;1.73;1.00;;;16.80;62.90;;;;;;2283342;62;31152;-78
2022/03/04 23:01:09;;;;;;;1.10;1.10;;;16.70;62.90;;;;;;2283233;62;30312;-78
2022/03/04 23:09:06;;;;;;;2.53;1.40;;;16.70;63.00;;;;;;2276544;62;30369;-73
2022/03/04 23:11:32;;;;;;;1.30;1.30;;;16.80;63.00;;;;;;2283351;62;30575;-75
2022/03/04 23:14:01;;;;;;;3.58;1.27;;;16.80;62.90;;;;;;2283569;62;30170;-75
2022/03/04 23:16:29;;;;;;;1.23;1.13;;;16.80;63.00;;;;;;2270807;62;30298;-74
2022/03/04 23:18:56;;;;;;;1.75;1.30;;;16.80;62.90;;;;;;2274209;62;30129;-73
2022/03/04 23:21:23;;;;;;;1.90;1.40;;;16.70;62.60;;;;;;2266236;62;30581;-72
2022/03/04 23:23:49;;;;;;;2.42;1.52;;;16.60;62.20;;;;;;2269224;62;30323;-77
2022/03/04 23:26:15;;;;;;;2.65;1.52;;;16.60;62.00;;;;;;2275428;62;30356;-77
2022/03/04 23:28:41;;;;;;;1.80;1.70;;;16.50;62.00;;;;;;2275359;62;31559;-76
2022/03/04 23:31:11;;;;;;;1.08;1.08;;;16.50;61.90;;;;;;2263417;62;30664;-79
